Time;durP1;ratioP1;P1;durP2;ratioP2;P2;SDS_P1;SDS_P2;PMS_P1;PMS_P2;Temp;Humidity;BMP_temperature;BMP_pressure;BME280_temperature;BME280_humidity;BME280_pressure;Samples;Min_cycle;Max_cycle;Signal;HPM_P1;HPM_P2
2021/05/11 00:00:01;;;;;;;3.80;3.10;;;;;;;11.51;55.87;100124.63;5011715;28;20390;-48
2021/05/11 00:02:27;;;;;;;4.90;3.20;;;;;;;11.59;56.00;100128.97;5011841;28;20112;-48
2021/05/11 00:04:52;;;;;;;5.22;2.83;;;;;;;11.68;54.93;100125.91;5011611;28;20551;-48
2021/05/11 00:07:18;;;;;;;6.30;3.10;;;;;;;12.02;54.96;100124.16;5011511;28;20050;-48
2021/05/11 00:09:43;;;;;;;3.95;2.90;;;;;;;12.24;53.60;100118.63;5011741;28;20417;-52
2021/05/11 00:12:09;;;;;;;4.40;2.97;;;;;;;11.77;55.23;100118.56;5011539;28;20088;-48
2021/05/11 00:14:34;;;;;;;4.32;2.97;;;;;;;11.89;54.25;100113.44;5010043;28;20048;-51
2021/05/11 00:17:00;;;;;;;6.72;3.10;;;;;;;11.48;55.33;100077.91;5011540;28;20025;-49
2021/05/11 00:19:27;;;;;;;3.70;3.05;;;;;;;11.24;56.32;100113.88;5011390;28;20022;-48
2021/05/11 00:21:53;;;;;;;5.93;3.22;;;;;;;11.61;55.99;100113.59;5011353;28;20022;-49
2021/05/11 00:24:19;;;;;;;5.07;3.22;;;;;;;11.57;56.15;100104.34;5010820;28;20112;-49
2021/05/11 00:26:44;;;;;;;5.68;2.88;;;;;;;11.53;56.45;100103.94;5011173;28;20033;-51
2021/05/11 00:29:09;;;;;;;4.95;2.88;;;;;;;11.44;56.48;100097.97;5011471;28;20033;-50
2021/05/11 00:31:35;;;;;;;6.40;3.40;;;;;;;11.46;56.13;100105.75;5011148;28;20100;-48
2021/05/11 00:34:01;;;;;;;4.03;3.20;;;;;;;11.41;56.33;100094.88;5011551;28;20057;-51
2021/05/11 00:36:27;;;;;;;5.22;3.20;;;;;;;10.99;57.74;100094.13;5011165;28;20037;-51
2021/05/11 00:38:52;;;;;;;3.05;2.65;;;;;;;11.09;57.44;100086.56;5011140;28;20033;-50
2021/05/11 00:41:18;;;;;;;4.93;3.20;;;;;;;11.26;57.33;100085.19;5009576;28;20363;-50
2021/05/11 00:43:44;;;;;;;4.15;3.20;;;;;;;11.26;57.21;100087.03;5010959;28;20026;-47
2021/05/11 00:46:09;;;;;;;5.22;3.20;;;;;;;11.45;57.03;100083.63;5012148;28;20025;-51
2021/05/11 00:48:35;;;;;;;3.92;2.92;;;;;;;11.54;56.53;100087.75;5030476;28;20036;-48
2021/05/11 00:51:03;;;;;;;5.43;2.83;;;;;;;11.77;56.10;100088.41;5030559;28;20090;-47
2021/05/11 00:53:28;;;;;;;6.40;3.10;;;;;;;11.34;57.35;100084.19;5030619;28;20109;-50
2021/05/11 00:55:54;;;;;;;4.90;3.10;;;;;;;11.38;56.78;100077.44;5030496;28;20018;-49
2021/05/11 00:58:19;;;;;;;6.10;3.45;;;;;;;11.47;56.58;100083.41;4995709;28;20037;-51
2021/05/11 01:00:44;;;;;;;5.35;3.25;;;;;;;11.69;56.25;100076.91;5029379;28;20044;-51
2021/05/11 01:03:10;;;;;;;4.13;3.30;;;;;;;11.67;56.00;100078.97;5030185;28;20032;-49
2021/05/11 01:05:35;;;;;;;4.30;3.35;;;;;;;11.71;56.51;100079.38;5030013;28;20462;-51
2021/05/11 01:08:01;;;;;;;5.95;3.30;;;;;;;11.88;55.86;100074.47;5030057;28;20021;-49
2021/05/11 01:10:26;;;;;;;4.82;3.22;;;;;;;11.64;56.63;100082.03;5029877;28;20186;-49
2021/05/11 01:12:52;;;;;;;7.10;3.58;;;;;;;11.71;56.29;100074.88;5029707;28;20080;-51
2021/05/11 01:15:18;;;;;;;7.22;3.45;;;;;;;11.80;55.99;100080.81;5030014;28;20029;-50
2021/05/11 01:17:50;;;;;;;5.80;3.30;;;;;;;11.68;56.47;100077.09;5030035;28;20025;-49
2021/05/11 01:20:26;;;;;;;3.90;3.20;;;;;;;11.53;56.74;100079.94;5029870;28;20083;-49
2021/05/11 01:25:36;;;;;;;5.53;3.67;;;;;;;11.52;56.82;100060.47;5030196;28;20028;-48
2021/05/11 01:31:02;;;;;;;5.30;3.50;;;;;;;11.67;56.96;100062.13;5029868;28;20025;-50
2021/05/11 02:23:54;;;;;;;5.32;3.70;;;;;;;11.30;58.80;100043.00;5032995;28;20453;-48
2021/05/11 02:26:20;;;;;;;5.50;3.85;;;;;;;11.62;57.85;100059.25;5033071;28;20135;-48
2021/05/11 02:28:45;;;;;;;6.00;3.78;;;;;;;11.57;57.33;100054.53;5032962;28;20382;-50
2021/05/11 02:31:11;;;;;;;5.70;3.92;;;;;;;11.64;57.32;100055.38;5032780;28;20469;-49
2021/05/11 02:33:36;;;;;;;6.60;4.07;;;;;;;11.68;57.32;100048.59;5032657;28;20371;-49
2021/05/11 02:36:02;;;;;;;8.50;4.40;;;;;;;11.55;57.58;100049.38;5032128;28;20027;-48
2021/05/11 02:38:28;;;;;;;5.75;4.13;;;;;;;11.51;58.13;100050.00;5032214;28;20457;-50
2021/05/11 02:40:53;;;;;;;6.05;4.35;;;;;;;11.61;57.40;100049.63;5032695;28;20025;-52
2021/05/11 02:43:26;;;;;;;6.57;4.15;;;;;;;11.57;57.39;100048.38;5032736;28;20021;-52
2021/05/11 02:45:52;;;;;;;8.93;5.03;;;;;;;11.44;57.69;100047.34;5032630;28;20022;-50
2021/05/11 02:48:17;;;;;;;6.30;4.00;;;;;;;11.68;57.60;100050.44;5032344;28;20022;-52
2021/05/11 02:50:43;;;;;;;6.95;4.32;;;;;;;11.76;57.67;100046.78;5032716;28;20025;-51
2021/05/11 02:53:08;;;;;;;6.32;4.35;;;;;;;11.74;57.07;100047.78;5032605;28;20025;-47
2021/05/11 02:55:34;;;;;;;7.20;4.63;;;;;;;11.83;56.75;100047.59;5032180;28;20025;-48
2021/05/11 02:57:59;;;;;;;9.63;4.65;;;;;;;11.87;56.91;100049.66;5032251;28;20029;-50
2021/05/11 03:00:27;;;;;;;35.55;20.55;;;;;;;11.92;56.70;100046.41;5030799;28;20041;-49
2021/05/11 03:02:52;;;;;;;9.20;4.78;;;;;;;12.01;56.27;100047.81;5032049;28;20394;-48
2021/05/11 03:05:18;;;;;;;8.43;5.28;;;;;;;11.96;56.20;100049.50;5032431;28;20017;-49
2021/05/11 03:07:44;;;;;;;8.32;4.82;;;;;;;12.00;56.92;100040.88;5032381;28;20029;-50
2021/05/11 03:10:10;;;;;;;8.60;4.80;;;;;;;11.90;56.91;100043.94;5032056;28;20029;-51
2021/05/11 03:12:36;;;;;;;7.28;4.90;;;;;;;11.79;57.28;100049.84;5031958;28;20081;-49
2021/05/11 03:15:03;;;;;;;10.27;5.13;;;;;;;11.64;57.85;100050.03;5031838;28;20041;-50
2021/05/11 03:17:29;;;;;;;6.53;5.00;;;;;;;11.71;57.23;100050.88;5032131;28;20025;-52
2021/05/11 03:19:54;;;;;;;7.50;5.30;;;;;;;11.76;56.96;100054.78;5032114;28;20029;-49
2021/05/11 03:22:20;;;;;;;8.10;5.25;;;;;;;11.62;58.05;100051.28;5032318;28;20025;-50
2021/05/11 03:24:45;;;;;;;8.68;4.97;;;;;;;11.44;58.00;100059.81;5032178;28;20017;-49
2021/05/11 03:27:12;;;;;;;9.57;5.10;;;;;;;11.27;59.15;100057.53;5031886;28;20021;-48
2021/05/11 03:29:37;;;;;;;8.60;4.57;;;;;;;11.48;58.25;100058.41;5031954;28;20029;-49
2021/05/11 03:32:03;;;;;;;6.60;4.60;;;;;;;11.32;58.39;100057.75;5032257;28;20025;-50
2021/05/11 03:34:29;;;;;;;8.55;4.75;;;;;;;11.68;57.66;100064.59;5031919;28;20071;-48
2021/05/11 03:36:54;;;;;;;8.80;4.88;;;;;;;11.92;56.96;100060.56;5031757;28;20099;-51
2021/05/11 03:39:20;;;;;;;6.78;4.70;;;;;;;11.78;57.48;100058.84;5022434;28;20033;-48
2021/05/11 03:41:49;;;;;;;7.15;4.63;;;;;;;11.93;57.19;100069.38;5031869;28;20032;-47
2021/05/11 03:44:18;;;;;;;7.60;4.82;;;;;;;11.81;57.93;100063.81;5032065;28;20072;-49
2021/05/11 03:46:43;;;;;;;7.35;4.65;;;;;;;12.05;56.80;100070.41;5031716;28;20435;-49
2021/05/11 03:49:09;;;;;;;8.00;4.63;;;;;;;12.17;56.26;100064.47;5031696;28;20026;-49
2021/05/11 03:51:35;;;;;;;6.97;4.40;;;;;;;12.50;55.54;100067.09;5031482;28;20041;-48
2021/05/11 03:54:00;;;;;;;8.05;4.50;;;;;;;12.75;55.59;100069.91;5031595;28;20520;-50
2021/05/11 03:56:29;;;;;;;6.95;4.20;;;;;;;12.98;54.85;100066.75;5031648;28;20018;-52
2021/05/11 03:58:54;;;;;;;6.85;4.45;;;;;;;13.14;54.25;100081.50;5031096;28;20174;-47
2021/05/11 04:01:20;;;;;;;9.13;4.50;;;;;;;13.61;52.54;100071.41;5030739;28;20099;-49
2021/05/11 04:03:45;;;;;;;7.20;4.00;;;;;;;13.77;51.92;100071.94;5031440;28;20030;-49
2021/05/11 04:06:11;;;;;;;7.45;4.10;;;;;;;13.93;51.74;100071.38;5031103;28;20476;-48
2021/05/11 04:11:14;;;;;;;6.80;4.00;;;;;;;14.73;49.77;100078.72;5031202;28;20021;-51
2021/05/11 04:16:25;;;;;;;5.70;3.92;;;;;;;14.82;49.46;100069.34;5030562;28;20036;-50
2021/05/11 04:18:50;;;;;;;6.53;3.85;;;;;;;15.43;48.30;100074.81;5030105;28;20033;-50
2021/05/11 04:21:17;;;;;;;55.88;27.25;;;;;;;15.25;48.67;100076.47;5029690;28;20045;-50
2021/05/11 04:23:43;;;;;;;6.97;3.55;;;;;;;15.51;47.54;100070.97;5029848;28;20124;-50
2021/05/11 04:26:12;;;;;;;5.68;3.70;;;;;;;16.00;46.35;100077.91;5029794;28;20025;-49
2021/05/11 04:28:38;;;;;;;5.50;3.70;;;;;;;15.85;46.83;100074.03;5029654;28;20029;-48
2021/05/11 04:31:04;;;;;;;4.80;3.45;;;;;;;15.38;48.00;100078.19;5028946;28;20365;-49
2021/05/11 04:33:29;;;;;;;5.38;3.28;;;;;;;15.13;47.92;100031.88;5021033;28;20034;-48
2021/05/11 04:35:55;;;;;;;6.68;3.60;;;;;;;15.77;47.15;100064.44;5016865;28;20022;-50
2021/05/11 04:38:22;;;;;;;5.97;3.88;;;;;;;15.97;47.04;100064.97;5009705;28;20096;-51
2021/05/11 04:40:48;;;;;;;10.10;3.70;;;;;;;16.54;45.36;100056.31;5009510;28;20139;-50
2021/05/11 04:43:13;;;;;;;5.10;3.60;;;;;;;16.32;45.10;100053.41;5009414;28;20108;-49
2021/05/11 04:45:39;;;;;;;5.88;3.38;;;;;;;16.59;44.81;100059.13;5009641;28;20466;-49
2021/05/11 04:48:05;;;;;;;4.68;3.60;;;;;;;17.02;44.23;100059.78;5024612;28;20030;-50
2021/05/11 04:50:30;;;;;;;5.43;3.72;;;;;;;17.24;43.38;100051.06;5028748;28;20052;-49
2021/05/11 04:52:56;;;;;;;5.93;4.03;;;;;;;17.36;43.74;100049.13;5028734;28;20025;-52
2021/05/11 04:55:21;;;;;;;5.57;3.40;;;;;;;17.35;42.90;100023.28;5028810;28;20041;-51
2021/05/11 04:57:47;;;;;;;5.22;3.85;;;;;;;17.74;42.27;100053.03;5028782;28;20029;-52
2021/05/11 05:00:13;;;;;;;7.75;3.50;;;;;;;18.07;41.12;100060.34;5029246;28;20371;-52
2021/05/11 05:02:44;;;;;;;6.63;3.40;;;;;;;18.45;41.12;100055.22;5029189;28;20044;-52
2021/05/11 05:05:10;;;;;;;4.75;3.30;;;;;;;18.14;41.34;100055.63;5027886;28;20017;-49
2021/05/11 05:07:36;;;;;;;6.05;3.30;;;;;;;18.39;41.43;100048.16;5028902;28;20381;-53
2021/05/11 05:10:03;;;;;;;4.20;3.17;;;;;;;18.62;41.27;100053.34;5029033;28;20478;-50
2021/05/11 05:12:28;;;;;;;4.53;3.10;;;;;;;18.89;40.25;100047.25;5028966;28;20503;-53
2021/05/11 05:14:54;;;;;;;4.97;3.05;;;;;;;18.63;40.97;100063.03;5023758;28;20069;-50
2021/05/11 05:17:19;;;;;;;6.03;3.30;;;;;;;18.58;40.74;100049.47;5016853;28;20402;-51
2021/05/11 05:19:45;;;;;;;8.93;3.50;;;;;;;18.99;40.18;100049.25;5029065;28;20022;-52
2021/05/11 05:22:10;;;;;;;5.00;3.17;;;;;;;19.08;39.71;100062.03;5026294;28;20041;-51
2021/05/11 05:24:40;;;;;;;5.95;3.60;;;;;;;19.88;38.45;100058.81;5025903;28;20111;-50
2021/05/11 05:27:20;;;;;;;7.65;3.78;;;;;;;20.00;38.31;100055.94;5028760;28;20044;-51
2021/05/11 05:29:46;;;;;;;7.57;3.28;;;;;;;19.83;38.84;100056.06;5028944;28;20029;-52
2021/05/11 05:32:11;;;;;;;5.05;2.90;;;;;;;19.69;38.50;100056.44;5028903;28;20044;-51
2021/05/11 05:34:37;;;;;;;5.05;3.20;;;;;;;19.97;38.11;100043.75;5028912;28;20106;-50
2021/05/11 05:37:02;;;;;;;5.72;2.83;;;;;;;20.16;37.27;100049.53;5028806;28;20083;-52
2021/05/11 05:40:04;;;;;;;6.63;3.58;;;;;;;20.17;37.73;100031.47;5028808;28;20052;-51
2021/05/11 05:42:19;;;;;;;6.05;3.95;;;;;;;20.96;41.35;100060.31;5027672;28;20338;-48
2021/05/11 05:44:45;;;;;;;3.83;2.90;;;;;;;21.34;35.71;100052.03;5028658;28;20026;-52
2021/05/11 05:47:11;;;;;;;6.30;3.53;;;;;;;21.64;36.44;100048.59;5028548;28;20029;-52
2021/05/11 05:49:45;;;;;;;4.03;3.22;;;;;;;20.29;36.81;100022.06;5028683;28;20417;-51
2021/05/11 05:52:17;;;;;;;7.57;3.42;;;;;;;20.81;36.83;100047.53;5028863;28;20033;-53
2021/05/11 05:54:44;;;;;;;5.22;3.22;;;;;;;21.22;36.99;100041.44;5028958;28;20453;-51
2021/05/11 05:57:09;;;;;;;5.45;3.17;;;;;;;21.29;36.15;100031.19;5029108;28;20033;-53
2021/05/11 05:59:39;;;;;;;3.80;3.00;;;;;;;22.03;35.99;100031.81;5029149;28;20029;-50
2021/05/11 06:02:05;;;;;;;6.72;4.82;;;;;;;22.84;35.27;100027.25;5029133;28;20085;-52
2021/05/11 06:04:30;;;;;;;7.32;4.90;;;;;;;22.81;34.22;100031.34;5028950;28;20155;-51
2021/05/11 06:06:56;;;;;;;6.97;3.30;;;;;;;22.60;33.49;100032.53;5028853;28;20026;-51
2021/05/11 06:09:22;;;;;;;8.00;3.33;;;;;;;22.90;34.42;100028.06;5027921;28;20037;-51
2021/05/11 06:12:06;;;;;;;6.05;5.13;;;;;;;22.93;33.86;100028.31;5023010;28;20037;-52
2021/05/11 06:17:17;;;;;;;5.07;3.03;;;;;;;23.10;32.32;100029.91;5028105;28;20071;-51
2021/05/11 06:19:47;;;;;;;3.78;2.80;;;;;;;22.49;33.35;100033.66;5028822;28;20025;-51
2021/05/11 06:22:13;;;;;;;4.88;3.10;;;;;;;23.00;32.88;100041.59;5028993;28;20083;-51
2021/05/11 06:24:39;;;;;;;4.40;2.92;;;;;;;23.12;32.35;100033.16;5031738;28;20021;-51
2021/05/11 06:27:05;;;;;;;5.75;3.00;;;;;;;23.12;32.69;100030.44;5031890;28;20343;-51
2021/05/11 06:29:33;;;;;;;6.45;2.65;;;;;;;23.22;32.71;100027.66;5032204;28;20477;-50
2021/05/11 06:31:58;;;;;;;4.82;2.80;;;;;;;23.60;32.05;100017.88;5031470;28;20185;-52
2021/05/11 06:34:24;;;;;;;6.53;2.97;;;;;;;23.88;31.88;100022.88;5035320;28;20492;-53
2021/05/11 06:36:49;;;;;;;5.15;3.00;;;;;;;23.95;31.04;100020.59;5033673;28;20021;-52
2021/05/11 06:39:16;;;;;;;3.72;2.85;;;;;;;24.06;31.44;100024.84;5045829;28;20380;-51
2021/05/11 06:41:45;;;;;;;3.80;3.10;;;;;;;23.10;33.00;100029.91;5041295;28;20043;-50
2021/05/11 06:44:24;;;;;;;3.65;2.90;;;;;;;23.18;32.53;100024.69;5038058;28;20022;-50
2021/05/11 06:54:12;;;;;;;5.60;2.97;;;;;;;22.85;34.47;100015.34;5037760;28;20091;-51
2021/05/11 06:56:40;;;;;;;4.85;3.22;;;;;;;23.75;31.57;100008.78;5047908;28;20473;-52
2021/05/11 06:59:06;;;;;;;5.85;2.85;;;;;;;24.52;30.92;100012.72;5036463;28;20032;-52
2021/05/11 07:01:31;;;;;;;4.80;2.78;;;;;;;24.43;31.02;100007.09;5042968;28;20409;-51
2021/05/11 07:03:57;;;;;;;4.45;3.20;;;;;;;23.26;32.15;100014.31;5043451;28;20017;-51
2021/05/11 07:06:23;;;;;;;5.47;3.10;;;;;;;23.59;31.58;100002.69;5036178;28;20017;-52
2021/05/11 07:08:53;;;;;;;4.20;3.10;;;;;;;22.77;32.76;100013.19;5047929;28;20024;-53
2021/05/11 07:13:44;;;;;;;4.28;2.90;;;;;;;23.15;32.86;100002.72;5041421;28;20038;-52
2021/05/11 07:16:10;;;;;;;3.97;2.30;;;;;;;24.02;31.87;100003.97;5030514;28;20082;-49
2021/05/11 07:18:35;;;;;;;5.13;3.03;;;;;;;24.80;29.96;100005.56;5037464;28;20095;-52
2021/05/11 07:21:01;;;;;;;4.00;3.20;;;;;;;25.04;29.60;99996.56;5047319;28;20021;-50
2021/05/11 07:23:27;;;;;;;5.20;2.90;;;;;;;24.72;30.58;99992.63;5038720;28;20510;-49
2021/05/11 07:30:54;;;;;;;7.13;2.80;;;;;;;23.72;32.08;99992.25;5033797;28;20056;-48
2021/05/11 07:33:21;;;;;;;7.35;3.00;;;;;;;24.40;31.21;99994.84;5043663;28;20028;-52
2021/05/11 07:35:47;;;;;;;7.18;3.15;;;;;;;22.98;32.70;99998.44;5040604;28;20087;-50
2021/05/11 07:38:12;;;;;;;5.22;3.00;;;;;;;22.83;33.63;99990.38;5036162;28;20068;-52
2021/05/11 07:40:38;;;;;;;3.22;2.80;;;;;;;23.44;32.80;99983.81;5044804;28;20025;-51
2021/05/11 07:43:03;;;;;;;6.38;2.92;;;;;;;23.47;32.57;99985.94;5034687;28;20036;-50
2021/05/11 07:45:40;;;;;;;3.90;3.00;;;;;;;23.47;32.96;99987.84;5041838;28;20022;-50
2021/05/11 08:04:35;;;;;;;5.40;3.10;;;;;;;25.85;29.26;99974.59;5048699;28;20468;-49
2021/05/11 08:17:40;;;;;;;5.47;3.25;;;;;;;24.62;30.22;99968.25;5049323;28;20063;-51
2021/05/11 08:27:44;;;;;;;4.60;3.38;;;;;;;25.71;28.37;99956.28;5021748;28;20544;-53
2021/05/11 08:30:10;;;;;;;5.30;3.40;;;;;;;25.54;29.07;99951.41;5010759;28;20109;-53
2021/05/11 08:32:36;;;;;;;5.45;2.97;;;;;;;25.42;29.74;99964.69;5011139;28;20030;-51
2021/05/11 08:35:01;;;;;;;4.07;2.90;;;;;;;26.04;28.62;99956.28;5011112;28;20042;-51
2021/05/11 08:37:27;;;;;;;6.88;3.35;;;;;;;27.05;26.75;99946.28;5010564;28;20033;-51
2021/05/11 08:39:52;;;;;;;3.75;3.15;;;;;;;26.03;28.13;99959.31;5010519;28;20438;-51
2021/05/11 08:42:18;;;;;;;6.18;3.13;;;;;;;26.33;27.55;99957.91;5010577;28;20521;-52
2021/05/11 08:44:43;;;;;;;6.63;2.80;;;;;;;26.72;27.40;99946.47;5028878;28;20021;-51
2021/05/11 08:47:10;;;;;;;5.70;3.00;;;;;;;27.37;27.23;99946.38;5029471;28;20489;-50
2021/05/11 08:49:35;;;;;;;6.65;3.20;;;;;;;27.31;26.81;99937.50;5028773;28;20101;-52
2021/05/11 08:52:27;;;;;;;5.55;3.30;;;;;;;27.57;26.99;99934.97;5030203;28;20029;-52
2021/05/11 08:55:10;;;;;;;6.38;2.88;;;;;;;26.98;27.86;99939.63;5028549;28;20512;-53
2021/05/11 09:25:23;;;;;;;4.18;2.80;;;;;;;25.69;29.11;99897.75;5028170;28;20473;-52
2021/05/11 09:28:01;;;;;;;7.38;3.05;;;;;;;25.78;28.65;99895.13;5028079;28;20057;-50
2021/05/11 09:58:41;;;;;;;3.47;2.40;;;;;;;25.52;28.99;99868.38;5029002;28;20044;-51
2021/05/11 10:13:10;;;;;;;4.35;2.35;;;;;;;25.97;28.45;99849.56;4997244;28;20033;-53
2021/05/11 10:48:24;;;;;;;3.05;1.90;;;;;;;24.54;30.99;99810.06;5031474;28;20036;-51
2021/05/11 10:51:14;;;;;;;4.32;2.25;;;;;;;25.51;29.15;99810.38;5031853;28;20029;-51
2021/05/11 10:53:41;;;;;;;3.45;2.00;;;;;;;26.42;28.06;99803.31;5030764;28;20113;-51
2021/05/11 10:56:36;;;;;;;6.90;2.10;;;;;;;25.82;28.89;99809.75;5030613;28;20073;-50
2021/05/11 10:59:10;;;;;;;4.97;2.15;;;;;;;25.44;29.02;99796.31;5030833;28;20051;-51
2021/05/11 11:01:36;;;;;;;4.20;2.00;;;;;;;25.68;28.98;99801.59;5031033;28;20033;-50
2021/05/11 11:04:32;;;;;;;2.47;1.88;;;;;;;25.01;29.40;99803.88;5030694;28;20032;-50
2021/05/11 11:07:00;;;;;;;5.03;2.00;;;;;;;25.29;29.59;99794.69;5031030;28;20025;-52
2021/05/11 11:09:27;;;;;;;2.95;1.92;;;;;;;25.15;30.38;99788.38;5030506;28;20355;-50
2021/05/11 11:11:52;;;;;;;5.43;2.55;;;;;;;26.03;28.74;99771.22;5030657;28;20025;-51
2021/05/11 11:14:18;;;;;;;4.18;1.83;;;;;;;26.98;27.10;99775.81;5030705;28;20571;-51
2021/05/11 11:16:44;;;;;;;3.25;1.90;;;;;;;27.48;27.14;99767.41;5031088;28;20552;-51
2021/05/11 11:19:13;;;;;;;5.72;2.08;;;;;;;28.04;25.88;99778.66;5030994;28;20382;-52
2021/05/11 11:24:14;;;;;;;4.05;2.03;;;;;;;27.09;26.57;99768.97;5030897;28;20037;-51
2021/05/11 11:26:43;;;;;;;6.63;2.33;;;;;;;25.65;28.57;99768.69;5012675;28;20413;-52
2021/05/11 11:29:10;;;;;;;4.35;2.20;;;;;;;26.25;27.33;99763.03;5030682;28;20410;-51
2021/05/11 11:31:45;;;;;;;3.40;2.10;;;;;;;27.04;27.16;99756.25;5029505;28;20029;-51
2021/05/11 11:34:22;;;;;;;4.80;2.30;;;;;;;27.87;26.41;99760.28;5030709;28;20099;-53
2021/05/11 11:36:48;;;;;;;8.10;2.50;;;;;;;29.06;25.26;99752.72;5030474;28;20117;-53
2021/05/11 11:39:20;;;;;;;3.33;2.35;;;;;;;28.83;24.67;99747.44;5030602;28;20057;-51
2021/05/11 11:41:47;;;;;;;5.75;2.65;;;;;;;29.12;24.42;99750.59;5030401;28;20548;-51
2021/05/11 11:44:19;;;;;;;6.22;2.40;;;;;;;28.61;24.74;99742.97;5030457;28;20108;-52
2021/05/11 11:46:49;;;;;;;4.60;2.35;;;;;;;27.09;25.93;99741.66;5030292;28;20010;-52
2021/05/11 11:49:19;;;;;;;4.82;2.42;;;;;;;26.72;27.26;99744.50;5029983;28;20056;-51
2021/05/11 11:52:08;;;;;;;6.18;2.40;;;;;;;27.35;25.97;99724.63;5029980;28;20021;-52
2021/05/11 11:59:34;;;;;;;6.45;2.30;;;;;;;26.29;25.74;99723.16;5029868;28;20194;-52
2021/05/11 12:02:01;;;;;;;5.63;2.30;;;;;;;26.03;25.84;99719.41;5030099;28;20330;-50
2021/05/11 12:04:27;;;;;;;3.92;2.15;;;;;;;26.44;25.65;99707.53;5029962;28;20021;-51
2021/05/11 12:06:53;;;;;;;3.40;2.05;;;;;;;27.64;24.72;99702.19;5029904;28;20115;-52
2021/05/11 12:09:20;;;;;;;2.33;1.92;;;;;;;28.73;23.43;99708.66;5029816;28;20037;-51
2021/05/11 12:11:46;;;;;;;4.43;2.10;;;;;;;28.44;23.48;99699.19;5030140;28;20040;-53
2021/05/11 12:14:13;;;;;;;4.13;1.80;;;;;;;27.49;23.25;99697.97;5029776;28;20140;-51
2021/05/11 12:16:43;;;;;;;5.40;2.03;;;;;;;26.74;23.79;99689.63;5028405;28;20029;-52
2021/05/11 12:19:13;;;;;;;2.60;1.95;;;;;;;27.53;23.44;99688.03;5029643;28;20086;-52
2021/05/11 12:21:47;;;;;;;3.83;2.00;;;;;;;28.50;22.48;99677.91;5029021;28;20025;-51
2021/05/11 12:24:13;;;;;;;3.72;2.30;;;;;;;29.27;22.46;99667.09;5029643;28;20050;-50
2021/05/11 12:26:41;;;;;;;3.72;2.00;;;;;;;29.44;22.79;99680.69;5029417;28;20053;-52
2021/05/11 12:29:17;;;;;;;5.35;2.10;;;;;;;28.20;23.36;99677.81;5029575;28;20113;-50
2021/05/11 12:31:49;;;;;;;4.18;1.98;;;;;;;27.61;23.67;99659.91;5029239;28;20423;-51
2021/05/11 12:34:20;;;;;;;6.15;2.00;;;;;;;27.08;24.17;99660.88;5029583;28;20037;-53
2021/05/11 12:36:56;;;;;;;5.50;2.10;;;;;;;27.08;25.05;99647.22;5029217;28;20052;-52
2021/05/11 12:42:17;;;;;;;2.65;1.95;;;;;;;26.26;25.05;99652.06;5029452;28;20131;-52
2021/05/11 12:44:43;;;;;;;3.70;2.00;;;;;;;26.47;25.21;99642.25;5029464;28;20048;-51
2021/05/11 12:47:09;;;;;;;3.00;1.90;;;;;;;27.18;24.19;99641.44;5029177;28;20514;-49
2021/05/11 12:49:35;;;;;;;9.20;2.03;;;;;;;27.54;24.20;99628.72;5029242;28;20087;-49
2021/05/11 12:52:02;;;;;;;4.38;1.80;;;;;;;26.78;24.22;99633.28;5027577;28;20021;-51
2021/05/11 12:57:09;;;;;;;2.42;1.75;;;;;;;27.56;23.52;99626.47;5029086;28;20408;-53
2021/05/11 12:59:49;;;;;;;4.60;1.90;;;;;;;26.55;23.60;99634.44;5029118;28;20025;-51
2021/05/11 13:25:38;;;;;;;2.90;1.60;;;;;;;27.07;23.09;99577.31;5029708;28;20030;-52
2021/05/11 13:35:27;;;;;;;5.47;1.73;;;;;;;27.91;22.47;99580.03;5033550;28;20391;-50
2021/05/11 13:37:52;;;;;;;4.32;1.80;;;;;;;27.40;22.49;99568.75;5033439;28;20087;-51
2021/05/11 13:40:18;;;;;;;2.80;1.27;;;;;;;27.40;21.55;99568.75;5032115;28;20413;-51
2021/05/11 13:42:43;;;;;;;2.28;1.40;;;;;;;27.66;20.93;99566.84;5033198;28;20033;-51
2021/05/11 13:45:09;;;;;;;2.90;1.27;;;;;;;27.50;21.90;99563.75;5033462;28;20478;-52
2021/05/11 13:47:35;;;;;;;2.78;1.50;;;;;;;27.21;22.98;99549.91;5033321;28;20387;-51
2021/05/11 13:50:03;;;;;;;1.73;1.30;;;;;;;26.84;22.51;99552.84;5033486;28;20021;-51
2021/05/11 13:52:29;;;;;;;2.87;1.53;;;;;;;26.79;23.24;99555.75;5033380;28;20521;-51
2021/05/11 13:54:58;;;;;;;4.05;1.48;;;;;;;26.46;23.33;99547.06;5033152;28;20862;-52
2021/05/11 14:02:55;;;;;;;3.08;1.20;;;;;;;25.94;23.68;99531.25;5033372;28;20032;-50
2021/05/11 14:05:20;;;;;;;3.13;1.20;;;;;;;26.45;23.30;99531.84;5033355;28;20087;-52
2021/05/11 14:07:46;;;;;;;2.70;1.33;;;;;;;26.57;22.04;99515.66;5032955;28;20037;-51
2021/05/11 14:10:11;;;;;;;1.80;1.13;;;;;;;26.64;21.66;99520.72;5032916;28;20078;-50
2021/05/11 14:12:37;;;;;;;2.70;1.40;;;;;;;26.45;21.67;99520.94;5032623;28;20472;-51
2021/05/11 14:15:05;;;;;;;3.85;1.05;;;;;;;26.49;21.58;99519.16;5032700;28;20060;-51
2021/05/11 14:17:30;;;;;;;2.00;1.40;;;;;;;26.70;21.48;99513.97;5032529;28;20155;-52
2021/05/11 14:19:56;;;;;;;1.80;0.88;;;;;;;26.76;21.42;99512.69;5032727;28;20448;-51
2021/05/11 14:22:23;;;;;;;1.13;1.02;;;;;;;26.81;21.31;99515.28;5032882;28;20080;-50
2021/05/11 14:24:48;;;;;;;2.88;1.27;;;;;;;26.17;22.02;99507.47;5031245;28;20463;-53
2021/05/11 14:27:14;;;;;;;2.78;1.15;;;;;;;26.26;22.12;99521.16;5030941;28;20022;-53
2021/05/11 14:29:39;;;;;;;3.35;1.42;;;;;;;26.31;22.28;99501.91;5032274;28;20037;-52
2021/05/11 14:32:05;;;;;;;2.40;1.30;;;;;;;26.32;21.97;99490.69;5032609;28;20029;-53
2021/05/11 14:34:31;;;;;;;1.13;1.00;;;;;;;26.29;21.93;99501.44;5032570;28;20426;-51
2021/05/11 14:36:56;;;;;;;2.63;1.33;;;;;;;26.19;22.16;99497.06;5032122;28;20022;-48
2021/05/11 14:39:22;;;;;;;2.40;1.20;;;;;;;25.66;22.60;99500.56;5032178;28;20036;-51
2021/05/11 14:41:52;;;;;;;2.00;1.42;;;;;;;25.75;22.68;99480.41;5032298;28;20033;-51
2021/05/11 14:44:18;;;;;;;2.05;1.02;;;;;;;25.78;22.72;99484.47;5030805;28;20029;-51
2021/05/11 14:46:43;;;;;;;5.38;1.80;;;;;;;25.43;23.30;99473.31;5027915;28;20048;-49
2021/05/11 14:49:09;;;;;;;2.60;1.10;;;;;;;25.22;24.03;99491.22;5012048;28;20100;-51
2021/05/11 14:51:34;;;;;;;2.38;1.23;;;;;;;25.26;23.53;99475.91;5029806;28;20130;-52
2021/05/11 14:54:00;;;;;;;3.83;1.60;;;;;;;25.29;24.02;99476.09;5021714;28;20394;-49
2021/05/11 14:56:25;;;;;;;2.90;1.20;;;;;;;25.43;23.87;99467.06;5022983;28;20017;-52
2021/05/11 14:58:51;;;;;;;2.25;1.42;;;;;;;25.18;24.04;99455.63;5032577;28;20082;-53
2021/05/11 15:01:16;;;;;;;3.40;1.50;;;;;;;25.15;24.55;99453.50;5029263;28;20098;-52
2021/05/11 15:03:41;;;;;;;5.55;1.70;;;;;;;25.12;24.30;99457.66;5025399;28;20026;-51
2021/05/11 15:06:07;;;;;;;2.03;1.10;;;;;;;24.76;24.75;99458.44;5031845;28;20033;-50
2021/05/11 15:08:32;;;;;;;1.58;1.20;;;;;;;24.86;25.45;99460.13;5031323;28;20029;-50
2021/05/11 15:10:58;;;;;;;2.63;1.25;;;;;;;25.06;24.64;99453.44;5031069;28;20440;-52
2021/05/11 15:13:23;;;;;;;5.97;1.30;;;;;;;24.58;25.16;99460.19;5030092;28;20037;-52
2021/05/11 15:15:51;;;;;;;1.75;1.10;;;;;;;24.62;25.01;99454.13;5029141;28;20025;-51
2021/05/11 15:18:17;;;;;;;4.00;1.35;;;;;;;24.47;25.38;99447.06;5031421;28;20041;-51
2021/05/11 15:20:43;;;;;;;1.48;1.08;;;;;;;24.51;25.25;99443.47;5031046;28;20025;-50
2021/05/11 15:23:08;;;;;;;2.17;1.20;;;;;;;24.82;25.09;99440.09;5031327;28;20030;-38
2021/05/11 15:25:34;;;;;;;1.77;1.40;;;;;;;24.34;25.23;99446.75;5031335;28;20017;-38
2021/05/11 15:28:00;;;;;;;2.10;1.10;;;;;;;24.40;25.05;99439.31;5030214;28;20133;-38
2021/05/11 15:30:26;;;;;;;5.18;1.48;;;;;;;24.76;24.74;99433.97;5031198;28;20057;-38
2021/05/11 15:32:56;;;;;;;1.80;1.00;;;;;;;25.04;24.35;99439.34;5031029;28;20147;-37
2021/05/11 15:35:34;;;;;;;1.60;1.10;;;;;;;24.40;24.82;99437.38;5031030;28;20033;-38
2021/05/11 15:38:01;;;;;;;2.00;1.60;;;;;;;24.57;24.82;99436.81;5031419;28;20124;-37
2021/05/11 15:40:27;;;;;;;5.88;1.50;;;;;;;25.01;24.54;99431.78;5031231;28;20029;-37
2021/05/11 15:42:53;;;;;;;4.72;1.10;;;;;;;24.45;24.70;99436.50;5024884;28;20140;-52
2021/05/11 15:45:19;;;;;;;1.58;1.20;;;;;;;24.20;24.88;99432.38;5028222;28;20033;-53
2021/05/11 15:47:53;;;;;;;1.58;1.20;;;;;;;24.30;24.56;99436.81;5030317;28;20025;-50
2021/05/11 15:50:28;;;;;;;2.25;1.15;;;;;;;24.44;25.16;99426.72;5026205;28;20041;-53
2021/05/11 15:52:55;;;;;;;3.63;1.20;;;;;;;24.12;25.22;99420.28;5027414;28;20045;-51